Terminal Aerodrome Forecast
Issued by NWS Wilmington, OH

Current Version | Previous Version | Graphics & Text | Print | Product List | Glossary On
Versions: 1 2 3 4 5 6 7 8 9 10 11 12 13 14 15 16 17 18
000
FTUS41 KILN 200700 AAA
TAFDAY
TAF AMD
KDAY 200746Z 2008/2106 28013KT P6SM OVC025
     FM201300 27012KT P6SM SCT030
     FM201500 26013G23KT P6SM SCT035
     FM201900 26015G25KT P6SM OVC030
     FM202300 26013G22KT P6SM VCSH OVC025
     FM210200 26012KT P6SM VCSH OVC025=

USA.gov is the U.S. government's official web portal to all federal, state and local government web resources and services.